Time;durP1;ratioP1;P1;durP2;ratioP2;P2;SDS_P1;SDS_P2;PMS_P1;PMS_P2;Temp;Humidity;BMP_temperature;BMP_pressure;BME280_temperature;BME280_humidity;BME280_pressure;Samples;Min_cycle;Max_cycle;Signal;HPM_P1;HPM_P2
2022/08/04 00:00:27;;;;;;;21.80;7.60;;;;;;;;;;6162867;23;20012;-93
2022/08/04 00:03:09;;;;;;;23.40;7.30;;;;;;;;;;6216772;23;20015;-92
2022/08/04 00:05:43;;;;;;;18.33;8.38;;;;;;;;;;6216979;23;20534;-91
2022/08/04 00:08:28;;;;;;;22.45;8.45;;;;;;;;;;6216426;23;20008;-92
2022/08/04 00:10:55;;;;;;;24.63;7.50;;;;;;;;;;6215561;23;20466;-92
2022/08/04 00:13:24;;;;;;;26.98;8.30;;;;;;;;;;6242713;22;20000;-92
2022/08/04 00:15:51;;;;;;;17.13;8.32;;;;;;;;;;6216509;23;20008;-92
2022/08/04 00:18:33;;;;;;;23.45;7.95;;;;;;;;;;6216001;23;20008;-92
2022/08/04 00:21:03;;;;;;;27.88;9.68;;;;;;;;;;6216258;23;20448;-92
2022/08/04 00:23:32;;;;;;;26.88;8.88;;;;;;;;;;6216602;23;20000;-92
2022/08/04 00:25:59;;;;;;;22.25;9.82;;;;;;;;;;6242439;23;19996;-92
2022/08/04 00:28:26;;;;;;;23.80;9.23;;;;;;;;;;6216040;23;20039;-92
2022/08/04 00:30:52;;;;;;;27.33;9.75;;;;;;;;;;6215781;23;20405;-92
2022/08/04 00:33:19;;;;;;;25.75;9.98;;;;;;;;;;6215551;23;20001;-92
2022/08/04 00:35:46;;;;;;;25.10;8.55;;;;;;;;;;6215636;23;20475;-92
2022/08/04 00:38:13;;;;;;;25.98;8.85;;;;;;;;;;6216564;23;20004;-92
2022/08/04 00:40:48;;;;;;;26.33;10.25;;;;;;;;;;6213598;23;20093;-92
2022/08/04 00:43:17;;;;;;;30.83;9.27;;;;;;;;;;6216373;23;20004;-92
2022/08/04 00:46:02;;;;;;;31.15;9.18;;;;;;;;;;6216409;23;20276;-92
2022/08/04 00:48:31;;;;;;;33.92;10.93;;;;;;;;;;6216534;23;20010;-92
2022/08/04 00:51:16;;;;;;;24.40;9.35;;;;;;;;;;6216303;23;20004;-92
2022/08/04 00:53:42;;;;;;;23.88;8.60;;;;;;;;;;6216552;23;20004;-92
2022/08/04 00:56:14;;;;;;;27.95;8.43;;;;;;;;;;6215485;23;20333;-92
2022/08/04 00:59:02;;;;;;;30.20;9.63;;;;;;;;;;6216380;23;20428;-92
2022/08/04 01:01:38;;;;;;;23.13;9.52;;;;;;;;;;6216951;23;20053;-92
2022/08/04 01:04:16;;;;;;;24.25;9.52;;;;;;;;;;6216997;23;20337;-92
2022/08/04 01:06:51;;;;;;;27.27;10.07;;;;;;;;;;6218509;23;20333;-92
2022/08/04 01:09:17;;;;;;;31.02;10.20;;;;;;;;;;6218391;23;20019;-92
2022/08/04 01:11:54;;;;;;;23.23;9.27;;;;;;;;;;6217418;23;20012;-92
2022/08/04 01:14:43;;;;;;;21.95;9.63;;;;;;;;;;6219466;22;20445;-92
2022/08/04 01:17:18;;;;;;;28.20;9.90;;;;;;;;;;6218027;23;20079;-92
2022/08/04 01:19:54;;;;;;;25.30;9.63;;;;;;;;;;6218267;23;20066;-92
2022/08/04 01:22:29;;;;;;;39.65;10.52;;;;;;;;;;6218301;23;20004;-92
2022/08/04 01:24:55;;;;;;;24.02;9.95;;;;;;;;;;6217539;23;20393;-92
2022/08/04 01:27:24;;;;;;;28.35;10.25;;;;;;;;;;6218379;23;20008;-92
2022/08/04 01:29:53;;;;;;;18.92;9.43;;;;;;;;;;6217641;23;20053;-92
2022/08/04 01:32:27;;;;;;;23.98;9.32;;;;;;;;;;6218101;23;20004;-92
2022/08/04 01:34:53;;;;;;;32.13;10.05;;;;;;;;;;6218273;23;20015;-92
2022/08/04 01:37:42;;;;;;;30.02;10.68;;;;;;;;;;6217699;23;20296;-92
2022/08/04 01:40:08;;;;;;;19.10;9.85;;;;;;;;;;6215150;23;20095;-92
2022/08/04 01:42:35;;;;;;;21.67;10.73;;;;;;;;;;6216389;23;20028;-92
2022/08/04 01:45:06;;;;;;;24.88;9.57;;;;;;;;;;6215717;23;20758;-92
2022/08/04 01:47:34;;;;;;;31.25;9.23;;;;;;;;;;6218840;23;20014;-92
2022/08/04 01:50:08;;;;;;;23.02;9.45;;;;;;;;;;6219658;23;20073;-92
2022/08/04 01:52:35;;;;;;;28.60;10.32;;;;;;;;;;6221053;23;20270;-92
2022/08/04 01:55:08;;;;;;;23.63;9.93;;;;;;;;;;6224821;23;20380;-91
2022/08/04 01:57:35;;;;;;;32.33;9.80;;;;;;;;;;6225873;23;20427;-90
2022/08/04 02:00:01;;;;;;;25.92;9.88;;;;;;;;;;6234799;23;20067;-91
2022/08/04 02:02:28;;;;;;;28.85;11.00;;;;;;;;;;6238745;23;20248;-91
2022/08/04 02:04:54;;;;;;;22.80;9.63;;;;;;;;;;6265513;23;20001;-91
2022/08/04 02:07:23;;;;;;;29.55;9.65;;;;;;;;;;6237697;23;20087;-91
2022/08/04 02:10:02;;;;;;;30.83;10.25;;;;;;;;;;6239910;23;19996;-91
2022/08/04 02:12:31;;;;;;;25.00;9.98;;;;;;;;;;6231942;23;20247;-92
2022/08/04 02:15:08;;;;;;;20.88;9.90;;;;;;;;;;6219264;22;20086;-92
2022/08/04 02:17:42;;;;;;;25.15;10.45;;;;;;;;;;6217001;23;20206;-92
2022/08/04 02:20:11;;;;;;;21.02;10.00;;;;;;;;;;6216076;23;20065;-92
2022/08/04 02:22:47;;;;;;;21.27;9.13;;;;;;;;;;6215510;23;20000;-92
2022/08/04 02:25:16;;;;;;;34.55;10.05;;;;;;;;;;6214652;23;20083;-91
2022/08/04 02:28:18;;;;;;;24.17;9.60;;;;;;;;;;6215554;23;20101;-93
2022/08/04 02:30:53;;;;;;;23.25;9.73;;;;;;;;;;6065097;23;20598;-92
2022/08/04 02:33:22;;;;;;;28.57;9.97;;;;;;;;;;6194303;23;20008;-91
2022/08/04 02:35:50;;;;;;;29.58;10.52;;;;;;;;;;6214508;23;20566;-92
2022/08/04 02:38:35;;;;;;;24.92;9.52;;;;;;;;;;6214536;23;20013;-92
2022/08/04 02:41:01;;;;;;;28.15;10.77;;;;;;;;;;6212057;23;20502;-89
2022/08/04 02:43:29;;;;;;;26.92;9.88;;;;;;;;;;6213577;23;20375;-89
2022/08/04 02:45:58;;;;;;;28.90;10.25;;;;;;;;;;6212521;23;20428;-89
2022/08/04 02:48:26;;;;;;;24.70;10.30;;;;;;;;;;6213106;23;20008;-89
2022/08/04 02:50:54;;;;;;;34.00;9.57;;;;;;;;;;6212786;23;20437;-90
2022/08/04 02:53:21;;;;;;;26.52;10.05;;;;;;;;;;6240058;23;20030;-89
2022/08/04 02:55:48;;;;;;;18.92;8.73;;;;;;;;;;6238827;23;20008;-89
2022/08/04 02:58:19;;;;;;;24.05;9.70;;;;;;;;;;6212860;23;20004;-89
2022/08/04 03:00:45;;;;;;;23.17;9.38;;;;;;;;;;6212906;23;20459;-89
2022/08/04 03:03:24;;;;;;;26.02;11.70;;;;;;;;;;6213089;23;20011;-89
2022/08/04 03:05:57;;;;;;;21.85;9.80;;;;;;;;;;6212247;23;20091;-89
2022/08/04 03:08:41;;;;;;;24.83;9.85;;;;;;;;;;6212853;23;20480;-89
2022/08/04 03:11:21;;;;;;;24.95;10.38;;;;;;;;;;6212044;23;20015;-90
2022/08/04 03:14:10;;;;;;;33.33;10.65;;;;;;;;;;6211971;22;20034;-89
2022/08/04 03:16:55;;;;;;;23.77;10.57;;;;;;;;;;6157234;23;20012;-89
2022/08/04 03:19:40;;;;;;;26.08;10.05;;;;;;;;;;6212076;23;20464;-89
2022/08/04 03:22:18;;;;;;;29.17;10.50;;;;;;;;;;6212620;23;20459;-89
2022/08/04 03:24:59;;;;;;;35.30;11.45;;;;;;;;;;6212417;23;20039;-89
2022/08/04 03:27:31;;;;;;;36.13;11.43;;;;;;;;;;6212344;23;20091;-89
2022/08/04 03:30:04;;;;;;;27.42;11.90;;;;;;;;;;6212011;23;20518;-90
2022/08/04 03:32:56;;;;;;;34.03;10.43;;;;;;;;;;6212379;23;20095;-89
2022/08/04 03:35:22;;;;;;;24.55;10.95;;;;;;;;;;6166643;23;20399;-89
2022/08/04 03:38:05;;;;;;;29.10;10.63;;;;;;;;;;6211931;23;20008;-90
2022/08/04 03:40:50;;;;;;;28.40;10.60;;;;;;;;;;6209369;23;20510;-89
2022/08/04 03:43:16;;;;;;;23.63;10.10;;;;;;;;;;6212936;23;20016;-89
2022/08/04 03:46:02;;;;;;;22.45;10.32;;;;;;;;;;6211939;23;20000;-89
2022/08/04 03:48:28;;;;;;;;;;;;;;;;;;6192560;23;20015;-90
2022/08/04 03:54:12;;;;;;;21.58;10.75;;;;;;;;;;6239471;23;20008;-89
2022/08/04 03:56:50;;;;;;;30.05;10.68;;;;;;;;;;6211392;23;20011;-89
2022/08/04 03:59:35;;;;;;;30.77;11.02;;;;;;;;;;6212799;23;20008;-89
2022/08/04 04:02:19;;;;;;;19.40;8.65;;;;;;;;;;6212421;23;20012;-89
2022/08/04 04:04:59;;;;;;;23.30;9.45;;;;;;;;;;6211892;23;20086;-89
2022/08/04 04:07:28;;;;;;;20.58;8.68;;;;;;;;;;6212412;23;20336;-89
2022/08/04 04:09:55;;;;;;;24.38;9.32;;;;;;;;;;6211540;23;20336;-90
2022/08/04 04:12:49;;;;;;;27.23;10.75;;;;;;;;;;6212142;23;20321;-89
2022/08/04 04:15:32;;;;;;;24.90;10.40;;;;;;;;;;6214176;22;20494;-89
2022/08/04 04:18:14;;;;;;;24.85;10.45;;;;;;;;;;6239314;23;20010;-89
2022/08/04 04:20:58;;;;;;;28.70;10.23;;;;;;;;;;6210753;23;20011;-90
2022/08/04 04:23:43;;;;;;;24.00;11.05;;;;;;;;;;6212842;23;20059;-89
2022/08/04 04:26:35;;;;;;;26.52;10.52;;;;;;;;;;6211051;23;20039;-90
2022/08/04 04:29:15;;;;;;;22.00;9.65;;;;;;;;;;6212182;23;20009;-89
2022/08/04 04:31:47;;;;;;;28.17;9.63;;;;;;;;;;6212359;23;20344;-89
2022/08/04 04:34:23;;;;;;;26.60;9.55;;;;;;;;;;6240134;23;20009;-89
2022/08/04 04:36:49;;;;;;;32.25;11.10;;;;;;;;;;6212682;23;20007;-89
2022/08/04 04:39:38;;;;;;;32.60;9.75;;;;;;;;;;6211260;23;20535;-89
2022/08/04 04:42:19;;;;;;;30.10;10.43;;;;;;;;;;6145624;23;20005;-89
2022/08/04 04:44:49;;;;;;;22.90;9.73;;;;;;;;;;6214433;23;20004;-89
2022/08/04 04:47:15;;;;;;;22.55;9.95;;;;;;;;;;6214392;23;20433;-90
2022/08/04 04:49:46;;;;;;;26.05;10.18;;;;;;;;;;6214547;23;20677;-89
2022/08/04 04:52:26;;;;;;;28.40;8.70;;;;;;;;;;6214329;23;20033;-89
2022/08/04 04:55:13;;;;;;;34.03;9.88;;;;;;;;;;6213719;23;20233;-89
2022/08/04 04:57:40;;;;;;;24.65;9.00;;;;;;;;;;6214678;23;20012;-89
2022/08/04 05:00:12;;;;;;;24.75;10.40;;;;;;;;;;6241008;23;20039;-89
2022/08/04 05:02:56;;;;;;;34.75;8.40;;;;;;;;;;6213805;23;20000;-89
2022/08/04 05:05:40;;;;;;;18.35;8.23;;;;;;;;;;6240770;23;20494;-89
2022/08/04 05:08:19;;;;;;;22.83;8.95;;;;;;;;;;6213670;23;20015;-89
2022/08/04 05:10:48;;;;;;;25.77;8.93;;;;;;;;;;6212922;23;20012;-89
2022/08/04 05:13:14;;;;;;;20.98;8.80;;;;;;;;;;6213887;23;20441;-89
2022/08/04 05:15:42;;;;;;;22.15;8.10;;;;;;;;;;6190039;22;20023;-89
2022/08/04 05:18:13;;;;;;;23.73;8.98;;;;;;;;;;6184145;23;20039;-89
2022/08/04 05:20:41;;;;;;;19.73;8.30;;;;;;;;;;6183594;23;20095;-89
2022/08/04 05:23:07;;;;;;;26.85;9.30;;;;;;;;;;6183411;23;20062;-90
2022/08/04 05:25:36;;;;;;;21.50;8.20;;;;;;;;;;6209172;23;20413;-89
2022/08/04 05:28:04;;;;;;;23.95;8.15;;;;;;;;;;6184039;23;20000;-89
2022/08/04 05:30:34;;;;;;;24.42;10.57;;;;;;;;;;6183508;23;20472;-89
2022/08/04 05:33:02;;;;;;;26.30;10.23;;;;;;;;;;6208642;23;20022;-90
2022/08/04 05:35:31;;;;;;;20.63;8.68;;;;;;;;;;6207805;23;20008;-89
2022/08/04 05:37:59;;;;;;;18.25;7.60;;;;;;;;;;6210152;23;20000;-89
2022/08/04 05:40:26;;;;;;;26.27;7.75;;;;;;;;;;6180810;23;20005;-89
2022/08/04 05:42:53;;;;;;;16.73;7.13;;;;;;;;;;6183159;23;20039;-89
2022/08/04 05:45:20;;;;;;;22.30;6.82;;;;;;;;;;6183269;23;20005;-89
2022/08/04 05:47:47;;;;;;;16.58;7.50;;;;;;;;;;6183545;23;20187;-89
2022/08/04 05:50:13;;;;;;;22.35;7.38;;;;;;;;;;6183345;23;20008;-89
2022/08/04 05:52:40;;;;;;;25.20;7.55;;;;;;;;;;6182716;23;20790;-89
2022/08/04 05:55:07;;;;;;;22.83;7.20;;;;;;;;;;6182508;23;20433;-89
2022/08/04 05:57:33;;;;;;;17.75;7.47;;;;;;;;;;6183478;23;20491;-89
2022/08/04 06:00:07;;;;;;;21.05;6.85;;;;;;;;;;6210202;23;20032;-89
2022/08/04 06:02:34;;;;;;;16.30;6.32;;;;;;;;;;6182980;23;20010;-90
2022/08/04 06:05:06;;;;;;;14.85;6.30;;;;;;;;;;6209957;23;20441;-89
2022/08/04 06:07:32;;;;;;;16.40;7.20;;;;;;;;;;6210396;23;20005;-89
2022/08/04 06:09:59;;;;;;;15.40;5.68;;;;;;;;;;6182612;23;20009;-90
2022/08/04 06:12:37;;;;;;;20.40;6.22;;;;;;;;;;6183027;23;20008;-89
2022/08/04 06:15:04;;;;;;;14.60;6.07;;;;;;;;;;6200459;22;20012;-90
2022/08/04 06:17:37;;;;;;;17.30;6.22;;;;;;;;;;6239828;23;20004;-89
2022/08/04 06:20:05;;;;;;;16.77;5.55;;;;;;;;;;6213195;23;20008;-89
2022/08/04 06:22:32;;;;;;;21.08;6.35;;;;;;;;;;6240449;23;20000;-90
2022/08/04 06:24:59;;;;;;;19.42;4.93;;;;;;;;;;6213085;23;20046;-89
2022/08/04 06:27:26;;;;;;;19.00;5.15;;;;;;;;;;6213477;23;20015;-91
2022/08/04 06:29:53;;;;;;;14.43;6.00;;;;;;;;;;6214507;23;20043;-89
2022/08/04 06:32:26;;;;;;;9.18;4.75;;;;;;;;;;6217468;23;20084;-90
2022/08/04 06:34:57;;;;;;;13.15;5.35;;;;;;;;;;6218700;23;20019;-89
2022/08/04 06:37:24;;;;;;;17.98;5.47;;;;;;;;;;6216891;23;20027;-90
2022/08/04 06:39:51;;;;;;;12.63;5.55;;;;;;;;;;6213524;23;20004;-89
2022/08/04 06:42:18;;;;;;;15.75;5.75;;;;;;;;;;6242210;23;20008;-89
2022/08/04 06:44:45;;;;;;;12.75;5.13;;;;;;;;;;6213654;23;20004;-88
2022/08/04 06:47:12;;;;;;;17.85;5.20;;;;;;;;;;6214261;23;20007;-88
2022/08/04 06:49:39;;;;;;;15.93;5.72;;;;;;;;;;6214028;23;20018;-90
2022/08/04 06:52:05;;;;;;;18.67;5.63;;;;;;;;;;6240465;23;20000;-90
2022/08/04 06:54:31;;;;;;;18.35;5.63;;;;;;;;;;6212296;23;20011;-90
2022/08/04 06:56:58;;;;;;;17.13;4.93;;;;;;;;;;6212755;23;20083;-89
2022/08/04 06:59:26;;;;;;;12.73;4.97;;;;;;;;;;6211779;23;20408;-90
2022/08/04 07:01:52;;;;;;;18.85;4.85;;;;;;;;;;6212706;23;20510;-90
2022/08/04 07:04:18;;;;;;;14.05;4.90;;;;;;;;;;6239170;23;20006;-90
2022/08/04 07:06:45;;;;;;;21.08;5.00;;;;;;;;;;6212673;23;20027;-89
2022/08/04 07:09:11;;;;;;;21.02;5.28;;;;;;;;;;6212446;23;20364;-89
2022/08/04 07:11:37;;;;;;;15.40;4.50;;;;;;;;;;6211608;23;20435;-89
2022/08/04 07:14:04;;;;;;;13.82;4.25;;;;;;;;;;6214042;22;20009;-90
2022/08/04 07:16:30;;;;;;;16.25;4.05;;;;;;;;;;6212218;23;20016;-89
2022/08/04 07:18:56;;;;;;;16.35;5.65;;;;;;;;;;6212499;23;20444;-90
2022/08/04 07:21:23;;;;;;;18.48;5.05;;;;;;;;;;6212708;23;20095;-89
2022/08/04 07:23:50;;;;;;;15.70;3.83;;;;;;;;;;6212712;23;20004;-90
2022/08/04 07:26:17;;;;;;;11.93;4.63;;;;;;;;;;6211041;23;20147;-90
2022/08/04 07:28:44;;;;;;;13.95;3.80;;;;;;;;;;6212374;23;20031;-89
2022/08/04 07:31:12;;;;;;;16.02;4.07;;;;;;;;;;6239346;23;20224;-90
2022/08/04 07:33:40;;;;;;;13.90;4.05;;;;;;;;;;6212228;23;20004;-91
2022/08/04 07:36:06;;;;;;;13.95;3.40;;;;;;;;;;6239877;23;20582;-90
2022/08/04 07:38:32;;;;;;;15.35;3.75;;;;;;;;;;6212341;23;20004;-89
2022/08/04 07:40:58;;;;;;;10.48;3.72;;;;;;;;;;6210125;23;20101;-90
2022/08/04 07:43:26;;;;;;;14.18;3.20;;;;;;;;;;6212478;23;20490;-89
2022/08/04 07:45:52;;;;;;;16.38;4.13;;;;;;;;;;6212188;23;20514;-90
2022/08/04 07:48:21;;;;;;;11.55;3.17;;;;;;;;;;6239291;23;20074;-90
2022/08/04 07:50:47;;;;;;;18.98;3.90;;;;;;;;;;6239088;23;20004;-89
2022/08/04 07:53:13;;;;;;;14.15;3.60;;;;;;;;;;6239383;23;20012;-90
2022/08/04 07:55:39;;;;;;;9.43;3.85;;;;;;;;;;6211739;23;20004;-90
2022/08/04 07:58:05;;;;;;;7.07;3.20;;;;;;;;;;6212249;23;20130;-90
2022/08/04 08:00:32;;;;;;;23.77;3.40;;;;;;;;;;6212398;23;20420;-90
2022/08/04 08:02:58;;;;;;;16.10;3.30;;;;;;;;;;6238744;23;20467;-90
2022/08/04 08:05:24;;;;;;;12.73;3.20;;;;;;;;;;6212240;23;20508;-90
2022/08/04 08:07:51;;;;;;;10.82;3.08;;;;;;;;;;6212122;23;20424;-90
2022/08/04 08:10:17;;;;;;;8.57;3.38;;;;;;;;;;6211198;23;20040;-90
2022/08/04 08:12:43;;;;;;;13.75;3.50;;;;;;;;;;6212164;23;20012;-90
2022/08/04 08:15:18;;;;;;;14.63;3.05;;;;;;;;;;6215411;22;20019;-89
2022/08/04 08:17:50;;;;;;;8.75;3.08;;;;;;;;;;6214393;23;20027;-90
2022/08/04 08:20:17;;;;;;;15.60;3.53;;;;;;;;;;6213991;23;20051;-90
2022/08/04 08:22:43;;;;;;;16.83;3.58;;;;;;;;;;6214328;23;20053;-89
2022/08/04 08:25:09;;;;;;;20.10;3.70;;;;;;;;;;6240566;23;20027;-90
2022/08/04 08:27:37;;;;;;;8.73;3.50;;;;;;;;;;6241070;23;20000;-89
2022/08/04 08:30:03;;;;;;;13.88;3.63;;;;;;;;;;6214514;23;20008;-90
2022/08/04 08:32:29;;;;;;;9.82;4.10;;;;;;;;;;6240956;23;20004;-90
2022/08/04 08:34:56;;;;;;;11.52;3.63;;;;;;;;;;6213326;23;20102;-91
2022/08/04 08:37:30;;;;;;;11.85;3.88;;;;;;;;;;6213846;23;20008;-90
2022/08/04 08:40:08;;;;;;;11.05;4.22;;;;;;;;;;6212215;23;20028;-90
2022/08/04 08:42:37;;;;;;;17.98;4.70;;;;;;;;;;6240871;23;20068;-90
2022/08/04 08:45:06;;;;;;;6.97;4.43;;;;;;;;;;6214015;23;20012;-89
2022/08/04 08:47:37;;;;;;;12.88;5.50;;;;;;;;;;6214067;23;20007;-89
2022/08/04 08:50:07;;;;;;;12.77;5.03;;;;;;;;;;6213687;23;20007;-90
2022/08/04 08:52:33;;;;;;;9.90;4.35;;;;;;;;;;6214164;23;20498;-90
2022/08/04 08:55:08;;;;;;;11.52;4.32;;;;;;;;;;6213153;23;20008;-90
2022/08/04 08:57:34;;;;;;;11.48;3.90;;;;;;;;;;6240593;23;20053;-90
2022/08/04 09:00:15;;;;;;;13.30;4.18;;;;;;;;;;6213745;23;20090;-90
2022/08/04 09:02:47;;;;;;;9.07;3.72;;;;;;;;;;6213469;23;20363;-90
2022/08/04 09:05:20;;;;;;;9.95;4.45;;;;;;;;;;6213848;23;20031;-90
2022/08/04 09:08:05;;;;;;;12.55;4.55;;;;;;;;;;6214287;23;20004;-90
2022/08/04 09:10:37;;;;;;;13.20;5.43;;;;;;;;;;6213657;23;20004;-89
2022/08/04 09:13:25;;;;;;;17.23;4.63;;;;;;;;;;6213560;23;20342;-90
2022/08/04 09:15:57;;;;;;;13.88;5.28;;;;;;;;;;6215082;22;20106;-89
2022/08/04 09:18:26;;;;;;;14.70;5.30;;;;;;;;;;6213721;23;20007;-90
2022/08/04 09:21:11;;;;;;;13.90;5.55;;;;;;;;;;6213487;23;20016;-90
2022/08/04 09:23:46;;;;;;;11.07;4.95;;;;;;;;;;6213647;23;20004;-90
2022/08/04 09:26:19;;;;;;;12.35;5.57;;;;;;;;;;6212789;23;20015;-90
2022/08/04 09:29:01;;;;;;;11.60;4.78;;;;;;;;;;6213101;23;20004;-90
2022/08/04 09:31:30;;;;;;;17.02;5.30;;;;;;;;;;6213647;23;20046;-90
2022/08/04 09:34:11;;;;;;;8.95;4.50;;;;;;;;;;6240244;23;20036;-90
2022/08/04 09:37:11;;;;;;;11.73;4.95;;;;;;;;;;6213869;23;20054;-91
2022/08/04 09:40:13;;;;;;;11.50;5.00;;;;;;;;;;6185119;23;20511;-90
2022/08/04 09:43:05;;;;;;;13.30;4.78;;;;;;;;;;6088099;23;20089;-90
2022/08/04 09:45:50;;;;;;;16.88;3.80;;;;;;;;;;6232235;23;20310;-90
2022/08/04 09:48:19;;;;;;;13.87;4.13;;;;;;;;;;6213359;23;20057;-90
2022/08/04 09:50:50;;;;;;;12.25;3.17;;;;;;;;;;6212813;23;20239;-90
2022/08/04 09:53:28;;;;;;;12.30;4.18;;;;;;;;;;6213983;23;20013;-90
2022/08/04 09:55:59;;;;;;;16.00;4.10;;;;;;;;;;6212247;23;20525;-90
2022/08/04 09:58:29;;;;;;;6.65;3.58;;;;;;;;;;6213677;23;20443;-90
2022/08/04 10:01:09;;;;;;;13.98;3.90;;;;;;;;;;6213092;23;20417;-90
2022/08/04 10:03:37;;;;;;;13.52;4.60;;;;;;;;;;6213558;23;20004;-90
2022/08/04 10:06:32;;;;;;;12.38;3.97;;;;;;;;;;6213205;23;20063;-90
2022/08/04 10:09:11;;;;;;;12.88;3.63;;;;;;;;;;6213221;23;20008;-90
2022/08/04 10:11:57;;;;;;;4.05;2.50;;;;;;;;;;6212563;23;20019;-90
2022/08/04 10:14:23;;;;;;;6.28;2.83;;;;;;;;;;6138048;23;20447;-90
2022/08/04 10:17:01;;;;;;;6.97;2.90;;;;;;;;;;6214721;22;20016;-90
2022/08/04 10:19:30;;;;;;;12.00;2.60;;;;;;;;;;6240118;23;20070;-90
2022/08/04 10:21:56;;;;;;;7.18;2.70;;;;;;;;;;6213086;23;20349;-90
2022/08/04 10:24:25;;;;;;;6.57;2.17;;;;;;;;;;6239442;23;20007;-90
2022/08/04 10:26:53;;;;;;;9.73;2.92;;;;;;;;;;6212790;23;19996;-90
2022/08/04 10:29:19;;;;;;;6.97;2.45;;;;;;;;;;6239647;23;20066;-90
2022/08/04 10:31:52;;;;;;;9.10;2.50;;;;;;;;;;6213387;23;20087;-90
2022/08/04 10:34:24;;;;;;;7.60;1.98;;;;;;;;;;6212974;23;20008;-90
2022/08/04 10:36:56;;;;;;;8.45;2.33;;;;;;;;;;6213257;23;20527;-91
2022/08/04 10:39:31;;;;;;;7.53;2.25;;;;;;;;;;6210996;23;20409;-90
2022/08/04 10:42:05;;;;;;;5.90;2.20;;;;;;;;;;6213099;23;20008;-90
2022/08/04 10:44:50;;;;;;;5.13;2.42;;;;;;;;;;6212560;23;20303;-91
2022/08/04 10:47:20;;;;;;;10.07;2.50;;;;;;;;;;6213283;23;20658;-90
2022/08/04 10:49:48;;;;;;;8.95;2.55;;;;;;;;;;6212964;23;20711;-90
2022/08/04 10:52:19;;;;;;;8.93;2.53;;;;;;;;;;6239937;23;20000;-91
2022/08/04 10:55:04;;;;;;;7.68;2.40;;;;;;;;;;6239263;23;20004;-90
2022/08/04 10:57:39;;;;;;;7.63;2.40;;;;;;;;;;6213689;23;20004;-90
2022/08/04 11:00:18;;;;;;;14.82;2.38;;;;;;;;;;6189923;23;20060;-90
2022/08/04 11:02:57;;;;;;;9.05;2.58;;;;;;;;;;6241103;23;20331;-90
2022/08/04 11:05:42;;;;;;;9.63;2.55;;;;;;;;;;6217736;23;20519;-90
2022/08/04 11:08:10;;;;;;;11.40;2.60;;;;;;;;;;6219177;23;20518;-90
2022/08/04 11:10:40;;;;;;;6.85;2.10;;;;;;;;;;6217458;23;20019;-89
2022/08/04 11:13:10;;;;;;;18.98;2.38;;;;;;;;;;6216917;23;20003;-90
2022/08/04 11:15:48;;;;;;;10.75;2.70;;;;;;;;;;6243495;22;20810;-90
2022/08/04 11:18:23;;;;;;;8.50;2.15;;;;;;;;;;6215231;23;20034;-89
2022/08/04 11:20:49;;;;;;;11.60;2.05;;;;;;;;;;6214420;23;20345;-89
2022/08/04 11:23:16;;;;;;;9.38;1.75;;;;;;;;;;6215515;23;20014;-89
2022/08/04 11:26:00;;;;;;;4.45;1.77;;;;;;;;;;6213132;23;20004;-90
2022/08/04 11:28:38;;;;;;;6.85;1.80;;;;;;;;;;6214676;23;20027;-90
2022/08/04 11:31:06;;;;;;;4.18;1.33;;;;;;;;;;6240433;23;20417;-90
2022/08/04 11:33:32;;;;;;;5.78;1.88;;;;;;;;;;6212942;23;20062;-90
2022/08/04 11:36:07;;;;;;;5.80;1.85;;;;;;;;;;6212485;23;20008;-90
2022/08/04 11:38:33;;;;;;;;;;;;;;;;;;6240341;23;20069;-90
2022/08/04 11:41:03;;;;;;;6.38;1.80;;;;;;;;;;6209284;23;19908;-90
2022/08/04 11:43:44;;;;;;;3.25;1.45;;;;;;;;;;6212892;23;20491;-89
2022/08/04 11:46:15;;;;;;;5.10;1.90;;;;;;;;;;6212412;23;20039;-89
2022/08/04 11:48:45;;;;;;;2.75;1.60;;;;;;;;;;6212395;23;20000;-90
2022/08/04 11:51:11;;;;;;;5.53;1.40;;;;;;;;;;6212068;23;20313;-90
2022/08/04 11:53:41;;;;;;;3.70;1.60;;;;;;;;;;6212673;23;20093;-90
2022/08/04 11:56:08;;;;;;;6.90;2.25;;;;;;;;;;6238267;23;20432;-90
2022/08/04 11:58:34;;;;;;;4.40;1.67;;;;;;;;;;6212619;23;20004;-90
2022/08/04 12:01:22;;;;;;;4.78;1.42;;;;;;;;;;6238545;23;20008;-90
2022/08/04 12:03:59;;;;;;;2.13;1.27;;;;;;;;;;6211801;23;20331;-90
2022/08/04 12:06:32;;;;;;;11.88;1.80;;;;;;;;;;6211999;23;20008;-89
2022/08/04 12:08:58;;;;;;;4.75;1.80;;;;;;;;;;6212542;23;20001;-89
2022/08/04 12:11:24;;;;;;;4.35;1.67;;;;;;;;;;6211171;23;20167;-90
2022/08/04 12:14:08;;;;;;;3.17;1.70;;;;;;;;;;6212590;23;20425;-90
2022/08/04 12:16:53;;;;;;;2.08;1.10;;;;;;;;;;6213480;22;20008;-90
2022/08/04 12:19:37;;;;;;;3.07;1.47;;;;;;;;;;6212099;23;20505;-90
2022/08/04 12:22:05;;;;;;;3.22;1.23;;;;;;;;;;6239191;23;20008;-90
2022/08/04 12:24:37;;;;;;;2.92;1.17;;;;;;;;;;6210917;23;20008;-90
2022/08/04 12:27:23;;;;;;;1.55;1.20;;;;;;;;;;6211507;23;20610;-90
2022/08/04 12:29:51;;;;;;;2.38;0.90;;;;;;;;;;6239240;23;20301;-90
2022/08/04 12:32:20;;;;;;;2.85;1.20;;;;;;;;;;6238704;23;20388;-89
2022/08/04 12:34:50;;;;;;;8.75;1.42;;;;;;;;;;6212428;23;20004;-90
2022/08/04 12:37:28;;;;;;;2.13;1.15;;;;;;;;;;6211888;23;20018;-89
2022/08/04 12:39:56;;;;;;;4.07;1.45;;;;;;;;;;6211000;23;20083;-90
2022/08/04 12:42:23;;;;;;;3.53;1.42;;;;;;;;;;6211628;23;20475;-90
2022/08/04 12:44:52;;;;;;;5.30;1.38;;;;;;;;;;6212076;23;20004;-90
2022/08/04 12:47:22;;;;;;;4.10;1.60;;;;;;;;;;6239403;23;20008;-90
2022/08/04 12:49:49;;;;;;;7.90;1.45;;;;;;;;;;6212738;23;20008;-90
2022/08/04 12:52:16;;;;;;;3.45;1.38;;;;;;;;;;6212059;23;20448;-90
2022/08/04 12:54:42;;;;;;;2.75;1.52;;;;;;;;;;6211360;23;20142;-90
2022/08/04 12:57:09;;;;;;;6.07;1.60;;;;;;;;;;6211852;23;20012;-90
2022/08/04 12:59:39;;;;;;;2.08;1.15;;;;;;;;;;6211769;23;20100;-90
2022/08/04 13:02:06;;;;;;;2.50;1.25;;;;;;;;;;6213443;23;20004;-90
2022/08/04 13:04:32;;;;;;;2.60;1.60;;;;;;;;;;6213618;23;20004;-90
2022/08/04 13:07:02;;;;;;;2.50;0.98;;;;;;;;;;6213791;23;20005;-90
2022/08/04 13:09:30;;;;;;;4.72;1.10;;;;;;;;;;6213661;23;20008;-90
2022/08/04 13:11:57;;;;;;;1.83;1.15;;;;;;;;;;6240075;23;20008;-90
2022/08/04 13:14:24;;;;;;;3.17;1.23;;;;;;;;;;6213885;23;20004;-90
2022/08/04 13:16:57;;;;;;;4.88;1.35;;;;;;;;;;6214897;22;20016;-90
2022/08/04 13:19:24;;;;;;;1.95;1.15;;;;;;;;;;6213657;23;20015;-91
2022/08/04 13:21:53;;;;;;;6.10;1.30;;;;;;;;;;6213900;23;20043;-90
2022/08/04 13:24:19;;;;;;;2.03;1.38;;;;;;;;;;6213532;23;20004;-90
2022/08/04 13:26:59;;;;;;;1.95;1.30;;;;;;;;;;6213071;23;20008;-90
2022/08/04 13:29:30;;;;;;;3.30;1.15;;;;;;;;;;6213921;23;20325;-90
2022/08/04 13:31:57;;;;;;;1.55;1.10;;;;;;;;;;6213404;23;20011;-90
2022/08/04 13:34:23;;;;;;;1.80;1.20;;;;;;;;;;6214167;23;20004;-90
2022/08/04 13:36:49;;;;;;;3.95;1.60;;;;;;;;;;6213677;23;20352;-90
2022/08/04 13:39:17;;;;;;;5.47;1.85;;;;;;;;;;6211907;23;20038;-90
2022/08/04 13:41:45;;;;;;;2.22;1.13;;;;;;;;;;6212617;23;20000;-90
2022/08/04 13:44:11;;;;;;;1.80;1.30;;;;;;;;;;6240850;23;20011;-90
2022/08/04 13:46:40;;;;;;;2.65;1.40;;;;;;;;;;6213304;23;20008;-90
2022/08/04 13:49:12;;;;;;;3.97;1.30;;;;;;;;;;6213249;23;20030;-90
2022/08/04 13:51:38;;;;;;;2.60;1.42;;;;;;;;;;6212793;23;20004;-90
2022/08/04 13:54:04;;;;;;;4.75;1.25;;;;;;;;;;6213638;23;20498;-90
2022/08/04 13:56:39;;;;;;;3.95;1.35;;;;;;;;;;6239193;23;20322;-90
2022/08/04 13:59:07;;;;;;;3.55;1.48;;;;;;;;;;6213859;23;20004;-90
2022/08/04 14:01:34;;;;;;;2.67;1.13;;;;;;;;;;6212901;23;20000;-90
2022/08/04 14:04:00;;;;;;;3.40;1.40;;;;;;;;;;6213260;23;20433;-90
2022/08/04 14:06:34;;;;;;;2.88;1.38;;;;;;;;;;6213033;23;20012;-89
2022/08/04 14:09:09;;;;;;;1.27;1.10;;;;;;;;;;6213835;23;20094;-90
2022/08/04 14:11:40;;;;;;;2.35;1.45;;;;;;;;;;6211756;23;20097;-91
2022/08/04 14:14:29;;;;;;;4.68;1.50;;;;;;;;;;6213656;23;20516;-90
2022/08/04 14:16:59;;;;;;;2.97;1.30;;;;;;;;;;6214550;22;20085;-89
2022/08/04 14:19:25;;;;;;;6.05;1.85;;;;;;;;;;6213294;23;20016;-90
2022/08/04 14:21:51;;;;;;;13.77;2.92;;;;;;;;;;6240064;23;20003;-90
2022/08/04 14:24:27;;;;;;;7.10;2.70;;;;;;;;;;6213304;23;20008;-90
2022/08/04 14:26:59;;;;;;;8.63;2.15;;;;;;;;;;6213033;23;20417;-90
2022/08/04 14:29:25;;;;;;;6.75;2.83;;;;;;;;;;6213641;23;20004;-90
2022/08/04 14:32:00;;;;;;;11.82;2.45;;;;;;;;;;6212959;23;20015;-90
2022/08/04 14:34:26;;;;;;;;;;;;;;;;;;6240412;23;20467;-90
2022/08/04 14:36:52;;;;;;;8.50;2.88;;;;;;;;;;6213143;23;19903;-91
2022/08/04 14:39:35;;;;;;;10.32;2.80;;;;;;;;;;6211232;23;20015;-90
2022/08/04 14:42:01;;;;;;;10.00;4.15;;;;;;;;;;6212772;23;20138;-91
2022/08/04 14:44:27;;;;;;;6.90;3.08;;;;;;;;;;6239968;23;20363;-90
2022/08/04 14:46:54;;;;;;;12.73;3.60;;;;;;;;;;6212992;23;20000;-90
2022/08/04 14:49:21;;;;;;;9.25;3.53;;;;;;;;;;6212775;23;20090;-89
2022/08/04 14:51:58;;;;;;;7.50;3.15;;;;;;;;;;6213230;23;20054;-90
2022/08/04 14:54:31;;;;;;;6.70;2.35;;;;;;;;;;6212257;23;20016;-90
2022/08/04 14:57:02;;;;;;;6.05;2.42;;;;;;;;;;6212609;23;20074;-90
2022/08/04 14:59:40;;;;;;;5.55;2.28;;;;;;;;;;6239411;23;20012;-89
2022/08/04 15:02:06;;;;;;;6.47;1.85;;;;;;;;;;6212670;23;20336;-90
2022/08/04 15:04:32;;;;;;;3.72;1.75;;;;;;;;;;6239471;23;20249;-90